sensor_id;sensor_type;location;lat;lon;timestamp;pressure;altitude;pressure_sealevel;temperature;humidity
62402;BME280;48440;51.224;22.506;2023-03-23T00:01:12;98708.47;;;9.71;65.93
62402;BME280;48440;51.224;22.506;2023-03-23T00:03:45;98710.66;;;9.74;66.01
62402;BME280;48440;51.224;22.506;2023-03-23T00:06:11;98710.09;;;9.72;65.77
62402;BME280;48440;51.224;22.506;2023-03-23T00:08:43;98704.97;;;9.76;66.14
62402;BME280;48440;51.224;22.506;2023-03-23T00:11:19;98711.75;;;9.73;65.75
62402;BME280;48440;51.224;22.506;2023-03-23T00:13:45;98709.03;;;9.73;65.84
62402;BME280;48440;51.224;22.506;2023-03-23T00:16:12;98709.28;;;9.72;66.23
62402;BME280;48440;51.224;22.506;2023-03-23T00:18:50;98703.31;;;9.70;66.05
62402;BME280;48440;51.224;22.506;2023-03-23T00:21:24;98712.25;;;9.70;66.20
62402;BME280;48440;51.224;22.506;2023-03-23T00:24:08;98706.59;;;9.72;66.02
62402;BME280;48440;51.224;22.506;2023-03-23T00:26:36;98704.13;;;9.70;66.12
62402;BME280;48440;51.224;22.506;2023-03-23T00:29:11;98704.13;;;9.70;66.18
62402;BME280;48440;51.224;22.506;2023-03-23T00:31:39;98701.44;;;9.70;66.33
62402;BME280;48440;51.224;22.506;2023-03-23T00:34:05;98696.53;;;9.67;66.52
62402;BME280;48440;51.224;22.506;2023-03-23T00:36:32;98695.16;;;9.65;66.71
62402;BME280;48440;51.224;22.506;2023-03-23T00:39:01;98688.09;;;9.64;66.55
62402;BME280;48440;51.224;22.506;2023-03-23T00:41:27;98686.47;;;9.63;66.43
62402;BME280;48440;51.224;22.506;2023-03-23T00:43:55;98685.41;;;9.64;66.57
62402;BME280;48440;51.224;22.506;2023-03-23T00:46:21;98684.31;;;9.65;66.65
62402;BME280;48440;51.224;22.506;2023-03-23T00:48:47;98676.47;;;9.63;66.60
62402;BME280;48440;51.224;22.506;2023-03-23T00:51:13;98681.06;;;9.63;66.51
62402;BME280;48440;51.224;22.506;2023-03-23T00:53:39;98678.91;;;9.60;66.85
62402;BME280;48440;51.224;22.506;2023-03-23T00:56:07;98678.09;;;9.59;66.43
62402;BME280;48440;51.224;22.506;2023-03-23T00:58:32;98681.63;;;9.60;66.78
62402;BME280;48440;51.224;22.506;2023-03-23T01:00:58;98674.00;;;9.62;66.66
62402;BME280;48440;51.224;22.506;2023-03-23T01:03:23;98675.94;;;9.61;66.98
62402;BME280;48440;51.224;22.506;2023-03-23T01:05:51;98676.47;;;9.58;67.02
62402;BME280;48440;51.224;22.506;2023-03-23T01:08:17;98661.53;;;9.56;67.13
62402;BME280;48440;51.224;22.506;2023-03-23T01:10:44;98659.34;;;9.52;67.71
62402;BME280;48440;51.224;22.506;2023-03-23T01:13:10;98658.00;;;9.50;67.52
62402;BME280;48440;51.224;22.506;2023-03-23T01:15:36;98655.03;;;9.51;67.43
62402;BME280;48440;51.224;22.506;2023-03-23T01:18:02;98650.94;;;9.49;67.16
62402;BME280;48440;51.224;22.506;2023-03-23T01:20:27;98649.31;;;9.48;67.33
62402;BME280;48440;51.224;22.506;2023-03-23T01:22:54;98649.31;;;9.48;67.38
62402;BME280;48440;51.224;22.506;2023-03-23T01:25:27;98644.41;;;9.45;67.43
62402;BME280;48440;51.224;22.506;2023-03-23T01:27:53;98641.72;;;9.45;67.36
62402;BME280;48440;51.224;22.506;2023-03-23T01:30:19;98644.69;;;9.43;67.49
62402;BME280;48440;51.224;22.506;2023-03-23T01:32:44;98641.41;;;9.41;67.49
62402;BME280;48440;51.224;22.506;2023-03-23T01:35:12;98643.84;;;9.43;67.67
62402;BME280;48440;51.224;22.506;2023-03-23T01:37:38;98635.44;;;9.39;67.55
62402;BME280;48440;51.224;22.506;2023-03-23T01:40:04;98628.13;;;9.40;67.74
62402;BME280;48440;51.224;22.506;2023-03-23T01:42:33;98635.69;;;9.38;67.44
62402;BME280;48440;51.224;22.506;2023-03-23T01:48:34;98630.56;;;9.41;67.54
62402;BME280;48440;51.224;22.506;2023-03-23T01:50:46;98624.63;;;9.44;67.71
62402;BME280;48440;51.224;22.506;2023-03-23T01:53:14;98630.88;;;9.45;67.34
62402;BME280;48440;51.224;22.506;2023-03-23T01:55:41;98629.25;;;9.44;67.82
62402;BME280;48440;51.224;22.506;2023-03-23T01:58:09;98629.53;;;9.47;67.76
62402;BME280;48440;51.224;22.506;2023-03-23T02:00:36;98634.44;;;9.50;67.63
62402;BME280;48440;51.224;22.506;2023-03-23T02:03:05;98632.53;;;9.51;67.26
62402;BME280;48440;51.224;22.506;2023-03-23T02:05:37;98631.72;;;9.50;67.71
62402;BME280;48440;51.224;22.506;2023-03-23T02:08:04;98630.09;;;9.49;67.53
62402;BME280;48440;51.224;22.506;2023-03-23T02:10:32;98633.88;;;9.48;67.46
62402;BME280;48440;51.224;22.506;2023-03-23T02:12:59;98638.22;;;9.49;67.63
62402;BME280;48440;51.224;22.506;2023-03-23T02:15:27;98626.56;;;9.49;67.45
62402;BME280;48440;51.224;22.506;2023-03-23T02:18:06;98637.41;;;9.49;67.96
62402;BME280;48440;51.224;22.506;2023-03-23T02:23:48;98632.78;;;9.49;67.70
62402;BME280;48440;51.224;22.506;2023-03-23T02:29:33;98631.97;;;9.49;68.10
62402;BME280;48440;51.224;22.506;2023-03-23T02:34:58;98630.34;;;9.48;67.95
62402;BME280;48440;51.224;22.506;2023-03-23T02:40:12;98639.81;;;9.45;67.70
62402;BME280;48440;51.224;22.506;2023-03-23T02:42:42;98630.06;;;9.44;67.63
62402;BME280;48440;51.224;22.506;2023-03-23T02:45:11;98634.91;;;9.42;67.89
62402;BME280;48440;51.224;22.506;2023-03-23T02:47:38;98636.25;;;9.40;67.75
62402;BME280;48440;51.224;22.506;2023-03-23T02:50:09;98640.56;;;9.36;68.33
62402;BME280;48440;51.224;22.506;2023-03-23T02:52:36;98633.25;;;9.31;68.04
62402;BME280;48440;51.224;22.506;2023-03-23T02:55:05;98637.84;;;9.31;68.07
62402;BME280;48440;51.224;22.506;2023-03-23T02:57:32;98638.13;;;9.29;68.24
62402;BME280;48440;51.224;22.506;2023-03-23T02:59:58;98632.16;;;9.27;68.65
62402;BME280;48440;51.224;22.506;2023-03-23T03:02:26;98637.81;;;9.26;68.64
62402;BME280;48440;51.224;22.506;2023-03-23T03:08:11;98633.75;;;9.23;68.57
62402;BME280;48440;51.224;22.506;2023-03-23T03:16:02;98629.41;;;9.22;68.72
62402;BME280;48440;51.224;22.506;2023-03-23T03:18:31;98625.88;;;9.22;68.66
62402;BME280;48440;51.224;22.506;2023-03-23T03:21:02;98623.16;;;9.22;68.88
62402;BME280;48440;51.224;22.506;2023-03-23T03:23:32;98622.06;;;9.17;68.38
62402;BME280;48440;51.224;22.506;2023-03-23T03:25:59;98623.94;;;9.17;69.00
62402;BME280;48440;51.224;22.506;2023-03-23T03:28:26;98623.41;;;9.15;68.81
62402;BME280;48440;51.224;22.506;2023-03-23T03:30:57;98622.31;;;9.16;68.44
62402;BME280;48440;51.224;22.506;2023-03-23T03:33:27;98617.41;;;9.13;68.91
62402;BME280;48440;51.224;22.506;2023-03-23T03:35:57;98620.13;;;9.13;68.63
62402;BME280;48440;51.224;22.506;2023-03-23T03:38:24;98614.16;;;9.11;69.01
62402;BME280;48440;51.224;22.506;2023-03-23T03:40:50;98620.38;;;9.11;68.87
62402;BME280;48440;51.224;22.506;2023-03-23T03:43:15;98629.88;;;9.14;69.03
62402;BME280;48440;51.224;22.506;2023-03-23T03:45:41;98616.88;;;9.11;68.60
62402;BME280;48440;51.224;22.506;2023-03-23T03:48:07;98619.56;;;9.11;68.98
62402;BME280;48440;51.224;22.506;2023-03-23T03:50:33;98616.34;;;9.14;68.79
62402;BME280;48440;51.224;22.506;2023-03-23T03:53:05;98620.38;;;9.11;69.08
62402;BME280;48440;51.224;22.506;2023-03-23T03:55:32;98616.34;;;9.14;68.62
62402;BME280;48440;51.224;22.506;2023-03-23T03:58:02;98619.88;;;9.14;68.82
62402;BME280;48440;51.224;22.506;2023-03-23T04:00:29;98613.63;;;9.14;68.63
62402;BME280;48440;51.224;22.506;2023-03-23T04:02:55;98616.06;;;9.10;68.82
62402;BME280;48440;51.224;22.506;2023-03-23T04:05:22;98615.53;;;9.08;69.07
62402;BME280;48440;51.224;22.506;2023-03-23T04:07:48;98618.75;;;9.05;68.85
62402;BME280;48440;51.224;22.506;2023-03-23T04:10:18;98604.97;;;9.07;69.15
62402;BME280;48440;51.224;22.506;2023-03-23T04:12:48;98609.81;;;9.05;68.90
62402;BME280;48440;51.224;22.506;2023-03-23T04:15:14;98609.00;;;9.04;68.84
62402;BME280;48440;51.224;22.506;2023-03-23T04:17:40;98606.03;;;9.06;69.04
62402;BME280;48440;51.224;22.506;2023-03-23T04:20:08;98602.50;;;9.05;68.91
62402;BME280;48440;51.224;22.506;2023-03-23T04:22:38;98597.91;;;9.06;68.91
62402;BME280;48440;51.224;22.506;2023-03-23T04:25:03;98600.88;;;9.04;68.68
62402;BME280;48440;51.224;22.506;2023-03-23T04:27:31;98610.38;;;9.07;68.91
62402;BME280;48440;51.224;22.506;2023-03-23T04:29:57;98604.41;;;9.05;68.93
62402;BME280;48440;51.224;22.506;2023-03-23T04:32:27;98604.91;;;9.02;68.91
62402;BME280;48440;51.224;22.506;2023-03-23T04:34:58;98602.22;;;9.02;68.82
62402;BME280;48440;51.224;22.506;2023-03-23T04:37:25;98603.59;;;9.04;68.78
62402;BME280;48440;51.224;22.506;2023-03-23T04:39:55;98604.97;;;9.07;68.80
62402;BME280;48440;51.224;22.506;2023-03-23T04:42:27;98609.00;;;9.04;68.71
62402;BME280;48440;51.224;22.506;2023-03-23T04:44:52;98608.22;;;9.09;68.61
62402;BME280;48440;51.224;22.506;2023-03-23T04:47:19;98612.53;;;9.05;68.99
62402;BME280;48440;51.224;22.506;2023-03-23T04:49:45;98610.63;;;9.05;68.90
62402;BME280;48440;51.224;22.506;2023-03-23T04:52:11;98616.88;;;9.06;69.04
62402;BME280;48440;51.224;22.506;2023-03-23T04:54:36;98610.94;;;9.09;68.55
62402;BME280;48440;51.224;22.506;2023-03-23T04:57:02;98621.75;;;9.09;68.58
62402;BME280;48440;51.224;22.506;2023-03-23T04:59:28;98610.38;;;9.12;68.45
62402;BME280;48440;51.224;22.506;2023-03-23T05:01:56;98609.56;;;9.11;68.28
62402;BME280;48440;51.224;22.506;2023-03-23T05:04:22;98621.19;;;9.12;68.47
62402;BME280;48440;51.224;22.506;2023-03-23T05:06:48;98615.78;;;9.12;68.63
62402;BME280;48440;51.224;22.506;2023-03-23T05:09:14;98621.50;;;9.15;68.22
62402;BME280;48440;51.224;22.506;2023-03-23T05:11:39;98624.75;;;9.17;68.18
62402;BME280;48440;51.224;22.506;2023-03-23T05:14:05;98622.09;;;9.23;68.44
62402;BME280;48440;51.224;22.506;2023-03-23T05:16:31;98616.41;;;9.24;67.91
62402;BME280;48440;51.224;22.506;2023-03-23T05:18:56;98621.28;;;9.22;67.95
62402;BME280;48440;51.224;22.506;2023-03-23T05:21:24;98630.19;;;9.17;68.40
62402;BME280;48440;51.224;22.506;2023-03-23T05:23:51;98625.31;;;9.19;68.08
62402;BME280;48440;51.224;22.506;2023-03-23T05:26:20;98627.50;;;9.23;68.07
62402;BME280;48440;51.224;22.506;2023-03-23T05:28:46;98629.94;;;9.24;67.96
62402;BME280;48440;51.224;22.506;2023-03-23T05:31:13;98634.59;;;9.29;68.16
62402;BME280;48440;51.224;22.506;2023-03-23T05:33:38;98629.22;;;9.34;67.72
62402;BME280;48440;51.224;22.506;2023-03-23T05:36:04;98634.06;;;9.37;67.64
62402;BME280;48440;51.224;22.506;2023-03-23T05:38:32;98636.81;;;9.42;67.56
62402;BME280;48440;51.224;22.506;2023-03-23T05:41:00;98635.50;;;9.49;67.50
62402;BME280;48440;51.224;22.506;2023-03-23T05:43:29;98638.50;;;9.53;67.64
62402;BME280;48440;51.224;22.506;2023-03-23T05:45:54;98642.59;;;9.56;67.46
62402;BME280;48440;51.224;22.506;2023-03-23T05:48:20;98639.63;;;9.57;67.24
62402;BME280;48440;51.224;22.506;2023-03-23T05:50:45;98636.91;;;9.62;67.08
62402;BME280;48440;51.224;22.506;2023-03-23T05:53:10;98633.69;;;9.70;67.01
62402;BME280;48440;51.224;22.506;2023-03-23T05:55:37;98639.44;;;9.79;67.15
62402;BME280;48440;51.224;22.506;2023-03-23T05:58:03;98632.94;;;9.90;66.78
62402;BME280;48440;51.224;22.506;2023-03-23T06:00:28;98633.25;;;9.99;66.44
62402;BME280;48440;51.224;22.506;2023-03-23T06:02:56;98632.75;;;10.12;65.73
62402;BME280;48440;51.224;22.506;2023-03-23T06:05:22;98623.84;;;10.27;65.31
62402;BME280;48440;51.224;22.506;2023-03-23T06:07:49;98623.31;;;10.40;65.10
62402;BME280;48440;51.224;22.506;2023-03-23T06:10:14;98624.16;;;10.56;64.60
62402;BME280;48440;51.224;22.506;2023-03-23T06:12:40;98619.53;;;10.71;64.05
62402;BME280;48440;51.224;22.506;2023-03-23T06:15:07;98623.06;;;10.82;63.55
62402;BME280;48440;51.224;22.506;2023-03-23T06:17:34;98620.38;;;10.82;63.69
62402;BME280;48440;51.224;22.506;2023-03-23T06:20:00;98623.06;;;10.87;63.43
62402;BME280;48440;51.224;22.506;2023-03-23T06:22:25;98624.72;;;10.88;63.81
62402;BME280;48440;51.224;22.506;2023-03-23T06:24:51;98619.25;;;11.13;62.80
62402;BME280;48440;51.224;22.506;2023-03-23T06:27:17;98612.88;;;11.48;62.05
62402;BME280;48440;51.224;22.506;2023-03-23T06:29:42;98616.88;;;11.71;60.90
62402;BME280;48440;51.224;22.506;2023-03-23T06:32:12;98612.25;;;11.77;60.24
62402;BME280;48440;51.224;22.506;2023-03-23T06:34:38;98614.47;;;11.65;60.51
62402;BME280;48440;51.224;22.506;2023-03-23T06:37:05;98619.94;;;11.49;60.66
62402;BME280;48440;51.224;22.506;2023-03-23T06:39:31;98619.69;;;11.46;61.35
62402;BME280;48440;51.224;22.506;2023-03-23T06:41:57;98626.75;;;11.47;61.24
62402;BME280;48440;51.224;22.506;2023-03-23T06:44:24;98625.09;;;11.56;61.09
62402;BME280;48440;51.224;22.506;2023-03-23T06:46:50;98624.81;;;11.52;61.02
62402;BME280;48440;51.224;22.506;2023-03-23T06:49:15;98625.63;;;11.58;60.72
62402;BME280;48440;51.224;22.506;2023-03-23T06:54:19;98626.44;;;11.64;60.84
62402;BME280;48440;51.224;22.506;2023-03-23T06:56:52;98623.38;;;11.75;60.78
62402;BME280;48440;51.224;22.506;2023-03-23T06:59:18;98627.09;;;12.00;60.18
62402;BME280;48440;51.224;22.506;2023-03-23T07:01:44;98624.16;;;12.40;59.54
62402;BME280;48440;51.224;22.506;2023-03-23T07:04:11;98629.03;;;13.06;57.58
62402;BME280;48440;51.224;22.506;2023-03-23T07:06:37;98625.22;;;13.60;55.54
62402;BME280;48440;51.224;22.506;2023-03-23T07:09:03;98623.97;;;13.76;54.67
62402;BME280;48440;51.224;22.506;2023-03-23T07:11:31;98618.78;;;13.75;54.46
62402;BME280;48440;51.224;22.506;2023-03-23T07:13:56;98615.31;;;13.69;54.82
62402;BME280;48440;51.224;22.506;2023-03-23T07:16:22;98623.50;;;13.45;55.77
62402;BME280;48440;51.224;22.506;2023-03-23T07:18:47;98621.34;;;13.13;56.30
62402;BME280;48440;51.224;22.506;2023-03-23T07:21:13;98616.91;;;12.94;56.98
62402;BME280;48440;51.224;22.506;2023-03-23T07:23:38;98614.75;;;12.90;57.07
62402;BME280;48440;51.224;22.506;2023-03-23T07:26:04;98612.34;;;13.13;56.58
62402;BME280;48440;51.224;22.506;2023-03-23T07:28:30;98615.91;;;13.42;56.09
62402;BME280;48440;51.224;22.506;2023-03-23T07:30:57;98613.84;;;13.53;56.18
62402;BME280;48440;51.224;22.506;2023-03-23T07:33:22;98613.34;;;13.51;56.03
62402;BME280;48440;51.224;22.506;2023-03-23T07:35:48;98608.78;;;13.46;56.52
62402;BME280;48440;51.224;22.506;2023-03-23T07:38:14;98601.78;;;13.35;56.98
62402;BME280;48440;51.224;22.506;2023-03-23T07:40:40;98607.13;;;13.21;57.32
62402;BME280;48440;51.224;22.506;2023-03-23T07:43:06;98596.63;;;13.05;57.65
62402;BME280;48440;51.224;22.506;2023-03-23T07:45:32;98604.34;;;12.98;57.66
62402;BME280;48440;51.224;22.506;2023-03-23T07:47:58;98611.25;;;12.85;58.21
62402;BME280;48440;51.224;22.506;2023-03-23T07:50:25;98611.31;;;12.80;58.46
62402;BME280;48440;51.224;22.506;2023-03-23T07:52:53;98605.16;;;12.69;58.79
62402;BME280;48440;51.224;22.506;2023-03-23T07:55:19;98611.97;;;12.67;58.90
62402;BME280;48440;51.224;22.506;2023-03-23T07:57:47;98613.59;;;12.68;59.00
62402;BME280;48440;51.224;22.506;2023-03-23T08:00:17;98606.28;;;12.63;59.01
62402;BME280;48440;51.224;22.506;2023-03-23T08:02:50;98610.06;;;12.67;59.05
62402;BME280;48440;51.224;22.506;2023-03-23T08:05:16;98615.81;;;12.61;59.04
62402;BME280;48440;51.224;22.506;2023-03-23T08:07:43;98604.66;;;12.62;59.38
62402;BME280;48440;51.224;22.506;2023-03-23T08:10:11;98606.53;;;12.67;59.93
62402;BME280;48440;51.224;22.506;2023-03-23T08:12:41;98616.31;;;12.68;59.97
62402;BME280;48440;51.224;22.506;2023-03-23T08:15:09;98610.06;;;12.67;59.43
62402;BME280;48440;51.224;22.506;2023-03-23T08:17:37;98615.16;;;12.74;59.16
62402;BME280;48440;51.224;22.506;2023-03-23T08:20:04;98611.88;;;12.77;59.17
62402;BME280;48440;51.224;22.506;2023-03-23T08:22:36;98604.19;;;12.84;58.80
62402;BME280;48440;51.224;22.506;2023-03-23T08:25:05;98610.41;;;12.89;58.37
62402;BME280;48440;51.224;22.506;2023-03-23T08:27:32;98609.78;;;12.98;58.41
62402;BME280;48440;51.224;22.506;2023-03-23T08:29:57;98613.53;;;13.02;58.52
62402;BME280;48440;51.224;22.506;2023-03-23T08:32:23;98616.78;;;13.04;58.28
62402;BME280;48440;51.224;22.506;2023-03-23T08:34:49;98621.34;;;13.13;58.26
62402;BME280;48440;51.224;22.506;2023-03-23T08:37:15;98619.66;;;13.22;58.04
62402;BME280;48440;51.224;22.506;2023-03-23T08:39:41;98621.00;;;13.25;58.31
62402;BME280;48440;51.224;22.506;2023-03-23T08:42:08;98620.69;;;13.27;58.35
62402;BME280;48440;51.224;22.506;2023-03-23T08:44:33;98617.97;;;13.27;58.40
62402;BME280;48440;51.224;22.506;2023-03-23T08:46:59;98612.50;;;13.27;58.63
62402;BME280;48440;51.224;22.506;2023-03-23T08:49:25;98633.22;;;13.28;58.68
62402;BME280;48440;51.224;22.506;2023-03-23T08:51:51;98631.28;;;13.28;58.24
62402;BME280;48440;51.224;22.506;2023-03-23T08:54:16;98631.09;;;13.24;59.23
62402;BME280;48440;51.224;22.506;2023-03-23T08:56:43;98631.28;;;13.28;59.12
62402;BME280;48440;51.224;22.506;2023-03-23T08:59:08;98633.94;;;13.38;58.61
62402;BME280;48440;51.224;22.506;2023-03-23T09:01:34;98633.34;;;13.41;58.82
62402;BME280;48440;51.224;22.506;2023-03-23T09:03:59;98622.97;;;13.43;58.68
62402;BME280;48440;51.224;22.506;2023-03-23T09:06:25;98621.91;;;13.39;58.35
62402;BME280;48440;51.224;22.506;2023-03-23T09:08:51;98628.75;;;13.37;58.23
62402;BME280;48440;51.224;22.506;2023-03-23T09:11:18;98633.97;;;13.33;58.57
62402;BME280;48440;51.224;22.506;2023-03-23T09:13:43;98632.63;;;13.31;58.40
62402;BME280;48440;51.224;22.506;2023-03-23T09:16:09;98636.41;;;13.35;58.64
62402;BME280;48440;51.224;22.506;2023-03-23T09:18:36;98620.00;;;13.40;58.93
62402;BME280;48440;51.224;22.506;2023-03-23T09:21:05;98625.94;;;13.47;58.81
62402;BME280;48440;51.224;22.506;2023-03-23T09:23:31;98617.47;;;13.48;58.84
62402;BME280;48440;51.224;22.506;2023-03-23T09:25:56;98618.16;;;13.59;58.72
62402;BME280;48440;51.224;22.506;2023-03-23T09:28:22;98610.44;;;13.66;58.57
62402;BME280;48440;51.224;22.506;2023-03-23T09:30:47;98616.41;;;13.68;58.46
62402;BME280;48440;51.224;22.506;2023-03-23T09:33:14;98607.13;;;13.69;57.70
62402;BME280;48440;51.224;22.506;2023-03-23T09:35:40;98607.44;;;13.68;58.11
62402;BME280;48440;51.224;22.506;2023-03-23T09:38:10;98609.38;;;13.62;58.08
62402;BME280;48440;51.224;22.506;2023-03-23T09:40:48;98609.16;;;13.58;58.32
62402;BME280;48440;51.224;22.506;2023-03-23T09:49:15;98603.31;;;13.70;57.86
62402;BME280;48440;51.224;22.506;2023-03-23T09:52:08;98604.13;;;13.71;58.08
62402;BME280;48440;51.224;22.506;2023-03-23T09:54:38;98613.34;;;13.75;58.29
62402;BME280;48440;51.224;22.506;2023-03-23T09:57:34;98597.78;;;13.75;57.91
62402;BME280;48440;51.224;22.506;2023-03-23T10:00:12;98599.63;;;13.80;57.80
62402;BME280;48440;51.224;22.506;2023-03-23T10:03:02;98592.19;;;13.85;57.91
62402;BME280;48440;51.224;22.506;2023-03-23T10:05:34;98593.22;;;13.89;57.92
62402;BME280;48440;51.224;22.506;2023-03-23T10:08:05;98599.72;;;13.93;57.82
62402;BME280;48440;51.224;22.506;2023-03-23T10:11:07;98592.28;;;13.99;57.65
62402;BME280;48440;51.224;22.506;2023-03-23T10:16:23;98593.63;;;14.02;56.91
62402;BME280;48440;51.224;22.506;2023-03-23T10:21:35;98593.47;;;14.12;57.24
62402;BME280;48440;51.224;22.506;2023-03-23T10:24:07;98588.22;;;14.15;57.58
62402;BME280;48440;51.224;22.506;2023-03-23T10:29:22;98582.94;;;14.24;57.72
62402;BME280;48440;51.224;22.506;2023-03-23T10:31:54;98584.44;;;14.30;57.64
62402;BME280;48440;51.224;22.506;2023-03-23T10:34:32;98582.47;;;14.36;57.61
62402;BME280;48440;51.224;22.506;2023-03-23T10:37:08;98587.34;;;14.39;57.70
62402;BME280;48440;51.224;22.506;2023-03-23T10:39:54;98581.56;;;14.40;57.17
62402;BME280;48440;51.224;22.506;2023-03-23T10:42:33;98581.31;;;14.42;57.58
62402;BME280;48440;51.224;22.506;2023-03-23T10:45:10;98584.31;;;14.40;57.50
62402;BME280;48440;51.224;22.506;2023-03-23T10:47:38;98583.50;;;14.40;57.12
62402;BME280;48440;51.224;22.506;2023-03-23T10:50:05;98575.59;;;14.38;57.02
62402;BME280;48440;51.224;22.506;2023-03-23T10:55:18;98578.34;;;14.38;56.74
62402;BME280;48440;51.224;22.506;2023-03-23T10:57:46;98575.09;;;14.36;57.43
62402;BME280;48440;51.224;22.506;2023-03-23T11:00:21;98578.63;;;14.37;57.20
62402;BME280;48440;51.224;22.506;2023-03-23T11:03:25;98581.06;;;14.38;57.96
62402;BME280;48440;51.224;22.506;2023-03-23T11:05:56;98577.69;;;14.46;58.16
62402;BME280;48440;51.224;22.506;2023-03-23T11:08:27;98577.91;;;14.50;57.78
62402;BME280;48440;51.224;22.506;2023-03-23T11:13:23;98578.31;;;14.57;56.90
62402;BME280;48440;51.224;22.506;2023-03-23T11:15:50;98570.13;;;14.57;56.71
62402;BME280;48440;51.224;22.506;2023-03-23T11:20:57;98574.13;;;14.65;55.70
62402;BME280;48440;51.224;22.506;2023-03-23T11:23:29;98570.88;;;14.63;55.52
62402;BME280;48440;51.224;22.506;2023-03-23T11:29:06;98558.03;;;14.63;56.00
62402;BME280;48440;51.224;22.506;2023-03-23T11:31:42;98553.59;;;14.67;56.07
62402;BME280;48440;51.224;22.506;2023-03-23T11:34:11;98549.69;;;14.73;55.50
62402;BME280;48440;51.224;22.506;2023-03-23T11:42:36;98532.19;;;14.88;56.42
62402;BME280;48440;51.224;22.506;2023-03-23T11:45:25;98533.22;;;14.92;56.33
62402;BME280;48440;51.224;22.506;2023-03-23T11:50:43;98527.44;;;14.93;55.86
62402;BME280;48440;51.224;22.506;2023-03-23T11:56:33;98517.94;;;14.91;54.93
62402;BME280;48440;51.224;22.506;2023-03-23T11:58:59;98519.84;;;14.90;55.96
62402;BME280;48440;51.224;22.506;2023-03-23T12:02:32;98524.00;;;14.88;56.07
62402;BME280;48440;51.224;22.506;2023-03-23T12:07:53;98511.38;;;14.92;55.42
62402;BME280;48440;51.224;22.506;2023-03-23T12:10:38;98509.06;;;14.99;55.55
62402;BME280;48440;51.224;22.506;2023-03-23T12:26:33;98474.69;;;15.75;52.16
62402;BME280;48440;51.224;22.506;2023-03-23T12:34:47;98471.16;;;15.97;50.76
62402;BME280;48440;51.224;22.506;2023-03-23T12:37:31;98474.91;;;16.01;51.05
62402;BME280;48440;51.224;22.506;2023-03-23T12:45:51;98462.53;;;16.04;49.63
62402;BME280;48440;51.224;22.506;2023-03-23T12:48:28;98470.63;;;16.09;50.35
62402;BME280;48440;51.224;22.506;2023-03-23T12:53:27;98460.53;;;16.18;50.01
62402;BME280;48440;51.224;22.506;2023-03-23T12:58:55;98454.25;;;16.17;49.36
62402;BME280;48440;51.224;22.506;2023-03-23T13:01:34;98443.78;;;16.19;49.18
62402;BME280;48440;51.224;22.506;2023-03-23T13:04:12;98439.94;;;16.20;49.08
62402;BME280;48440;51.224;22.506;2023-03-23T13:06:42;98439.13;;;16.20;49.46
62402;BME280;48440;51.224;22.506;2023-03-23T13:11:38;98427.38;;;16.19;49.50
62402;BME280;48440;51.224;22.506;2023-03-23T13:19:59;98412.34;;;16.08;48.73
62402;BME280;48440;51.224;22.506;2023-03-23T13:22:56;98408.13;;;16.02;48.88
62402;BME280;48440;51.224;22.506;2023-03-23T13:28:32;98401.66;;;15.98;48.71
62402;BME280;48440;51.224;22.506;2023-03-23T13:31:12;98398.59;;;16.00;48.63
62402;BME280;48440;51.224;22.506;2023-03-23T13:33:39;98404.25;;;16.03;48.95
62402;BME280;48440;51.224;22.506;2023-03-23T13:36:12;98403.81;;;16.10;49.33
62402;BME280;48440;51.224;22.506;2023-03-23T13:38:43;98404.28;;;16.12;48.99
62402;BME280;48440;51.224;22.506;2023-03-23T13:41:12;98407.72;;;16.17;49.20
62402;BME280;48440;51.224;22.506;2023-03-23T13:43:40;98411.94;;;16.23;49.78
62402;BME280;48440;51.224;22.506;2023-03-23T13:46:24;98413.44;;;16.29;49.15
62402;BME280;48440;51.224;22.506;2023-03-23T14:01:56;98393.59;;;16.24;47.65
62402;BME280;48440;51.224;22.506;2023-03-23T14:04:23;98402.06;;;16.14;48.02
62402;BME280;48440;51.224;22.506;2023-03-23T14:06:56;98395.13;;;16.08;48.13
62402;BME280;48440;51.224;22.506;2023-03-23T14:09:27;98397.78;;;15.99;48.77
62402;BME280;48440;51.224;22.506;2023-03-23T14:12:03;98394.06;;;15.95;48.85
62402;BME280;48440;51.224;22.506;2023-03-23T14:14:40;98389.31;;;15.87;49.14
62402;BME280;48440;51.224;22.506;2023-03-23T14:17:10;98388.34;;;15.83;49.01
62402;BME280;48440;51.224;22.506;2023-03-23T14:19:39;98389.28;;;15.78;49.41
62402;BME280;48440;51.224;22.506;2023-03-23T14:22:17;98389.72;;;15.72;49.96
62402;BME280;48440;51.224;22.506;2023-03-23T14:24:42;98381.31;;;15.68;50.06
62402;BME280;48440;51.224;22.506;2023-03-23T14:27:17;98380.63;;;15.63;50.19
62402;BME280;48440;51.224;22.506;2023-03-23T14:29:43;98379.00;;;15.61;50.40
62402;BME280;48440;51.224;22.506;2023-03-23T14:32:15;98381.41;;;15.63;50.04
62402;BME280;48440;51.224;22.506;2023-03-23T14:34:42;98374.03;;;15.64;50.50
62402;BME280;48440;51.224;22.506;2023-03-23T14:37:15;98372.72;;;15.61;50.61
62402;BME280;48440;51.224;22.506;2023-03-23T14:39:45;98368.72;;;15.58;50.69
62402;BME280;48440;51.224;22.506;2023-03-23T14:42:13;98374.47;;;15.57;51.09
62402;BME280;48440;51.224;22.506;2023-03-23T14:44:41;98374.75;;;15.55;51.12
62402;BME280;48440;51.224;22.506;2023-03-23T14:47:16;98371.03;;;15.51;51.45
62402;BME280;48440;51.224;22.506;2023-03-23T14:49:42;98367.78;;;15.49;51.61
62402;BME280;48440;51.224;22.506;2023-03-23T14:52:17;98362.13;;;15.46;52.09
62402;BME280;48440;51.224;22.506;2023-03-23T14:54:44;98376.09;;;15.44;52.10
62402;BME280;48440;51.224;22.506;2023-03-23T14:57:17;98376.72;;;15.41;52.02
62402;BME280;48440;51.224;22.506;2023-03-23T14:59:44;98373.16;;;15.41;51.91
62402;BME280;48440;51.224;22.506;2023-03-23T15:02:35;98371.03;;;15.38;51.86
62402;BME280;48440;51.224;22.506;2023-03-23T15:07:40;98371.03;;;15.38;51.04
62402;BME280;48440;51.224;22.506;2023-03-23T15:10:09;98364.97;;;15.41;50.64